sensor_id;sensor_type;location;lat;lon;timestamp;P1;durP1;ratioP1;P2;durP2;ratioP2
67363;SDS011;54250;45.572;38.086;2022-08-03T00:00:40;24.38;;;15.73;;
67363;SDS011;54250;45.572;38.086;2022-08-03T00:03:06;23.38;;;15.07;;
67363;SDS011;54250;45.572;38.086;2022-08-03T00:05:32;23.75;;;15.68;;
67363;SDS011;54250;45.572;38.086;2022-08-03T00:07:58;25.20;;;16.02;;
67363;SDS011;54250;45.572;38.086;2022-08-03T00:10:25;26.27;;;15.10;;
67363;SDS011;54250;45.572;38.086;2022-08-03T00:12:51;31.60;;;15.05;;
67363;SDS011;54250;45.572;38.086;2022-08-03T00:15:18;30.02;;;15.60;;
67363;SDS011;54250;45.572;38.086;2022-08-03T00:17:44;27.17;;;15.90;;
67363;SDS011;54250;45.572;38.086;2022-08-03T00:20:11;23.80;;;16.13;;
67363;SDS011;54250;45.572;38.086;2022-08-03T00:22:38;25.10;;;15.07;;
67363;SDS011;54250;45.572;38.086;2022-08-03T00:25:04;22.95;;;14.55;;
67363;SDS011;54250;45.572;38.086;2022-08-03T00:27:30;23.98;;;15.00;;
67363;SDS011;54250;45.572;38.086;2022-08-03T00:29:56;22.58;;;15.23;;
67363;SDS011;54250;45.572;38.086;2022-08-03T00:32:22;26.17;;;15.07;;
67363;SDS011;54250;45.572;38.086;2022-08-03T00:34:48;26.50;;;15.10;;
67363;SDS011;54250;45.572;38.086;2022-08-03T00:37:14;27.25;;;15.77;;
67363;SDS011;54250;45.572;38.086;2022-08-03T00:39:40;35.35;;;16.20;;
67363;SDS011;54250;45.572;38.086;2022-08-03T00:42:10;26.58;;;16.05;;
67363;SDS011;54250;45.572;38.086;2022-08-03T00:44:43;33.15;;;17.00;;
67363;SDS011;54250;45.572;38.086;2022-08-03T00:49:36;27.00;;;16.35;;
67363;SDS011;54250;45.572;38.086;2022-08-03T00:52:03;25.58;;;15.88;;
67363;SDS011;54250;45.572;38.086;2022-08-03T00:54:30;31.33;;;16.38;;
67363;SDS011;54250;45.572;38.086;2022-08-03T00:56:56;32.15;;;18.23;;
67363;SDS011;54250;45.572;38.086;2022-08-03T00:59:22;31.48;;;17.75;;
67363;SDS011;54250;45.572;38.086;2022-08-03T01:01:48;27.30;;;17.13;;
67363;SDS011;54250;45.572;38.086;2022-08-03T01:04:20;32.10;;;18.23;;
67363;SDS011;54250;45.572;38.086;2022-08-03T01:09:40;27.23;;;17.40;;
67363;SDS011;54250;45.572;38.086;2022-08-03T01:15:09;35.78;;;19.63;;
67363;SDS011;54250;45.572;38.086;2022-08-03T01:17:58;32.85;;;18.33;;
67363;SDS011;54250;45.572;38.086;2022-08-03T01:20:31;26.25;;;17.38;;
67363;SDS011;54250;45.572;38.086;2022-08-03T01:23:01;32.38;;;17.02;;
67363;SDS011;54250;45.572;38.086;2022-08-03T01:25:39;30.15;;;16.17;;
67363;SDS011;54250;45.572;38.086;2022-08-03T01:31:14;30.30;;;16.75;;
67363;SDS011;54250;45.572;38.086;2022-08-03T01:33:48;29.27;;;16.45;;
67363;SDS011;54250;45.572;38.086;2022-08-03T01:38:54;32.53;;;17.42;;
67363;SDS011;54250;45.572;38.086;2022-08-03T01:41:28;33.92;;;19.75;;
67363;SDS011;54250;45.572;38.086;2022-08-03T01:43:58;36.13;;;20.83;;
67363;SDS011;54250;45.572;38.086;2022-08-03T01:46:27;41.90;;;21.27;;
67363;SDS011;54250;45.572;38.086;2022-08-03T01:48:55;39.38;;;21.83;;
67363;SDS011;54250;45.572;38.086;2022-08-03T01:51:23;38.88;;;20.63;;
67363;SDS011;54250;45.572;38.086;2022-08-03T01:53:49;43.55;;;22.30;;
67363;SDS011;54250;45.572;38.086;2022-08-03T01:56:19;38.97;;;21.55;;
67363;SDS011;54250;45.572;38.086;2022-08-03T01:58:48;41.55;;;22.13;;
67363;SDS011;54250;45.572;38.086;2022-08-03T02:01:17;42.25;;;22.33;;
67363;SDS011;54250;45.572;38.086;2022-08-03T02:03:45;54.90;;;24.77;;
67363;SDS011;54250;45.572;38.086;2022-08-03T02:06:13;49.67;;;24.98;;
67363;SDS011;54250;45.572;38.086;2022-08-03T02:08:42;57.20;;;25.90;;
67363;SDS011;54250;45.572;38.086;2022-08-03T02:11:09;55.40;;;26.92;;
67363;SDS011;54250;45.572;38.086;2022-08-03T02:13:36;58.10;;;27.80;;
67363;SDS011;54250;45.572;38.086;2022-08-03T02:16:03;62.55;;;28.23;;
67363;SDS011;54250;45.572;38.086;2022-08-03T02:18:30;59.72;;;29.40;;
67363;SDS011;54250;45.572;38.086;2022-08-03T02:21:00;56.92;;;26.35;;
67363;SDS011;54250;45.572;38.086;2022-08-03T02:23:28;48.83;;;24.35;;
67363;SDS011;54250;45.572;38.086;2022-08-03T02:25:59;44.97;;;23.98;;
67363;SDS011;54250;45.572;38.086;2022-08-03T02:28:36;51.00;;;24.60;;
67363;SDS011;54250;45.572;38.086;2022-08-03T02:31:08;47.17;;;24.05;;
67363;SDS011;54250;45.572;38.086;2022-08-03T02:33:40;44.17;;;24.73;;
67363;SDS011;54250;45.572;38.086;2022-08-03T02:36:10;50.33;;;24.35;;
67363;SDS011;54250;45.572;38.086;2022-08-03T02:38:40;44.92;;;22.42;;
67363;SDS011;54250;45.572;38.086;2022-08-03T02:41:07;41.65;;;22.77;;
67363;SDS011;54250;45.572;38.086;2022-08-03T02:43:40;42.75;;;23.23;;
67363;SDS011;54250;45.572;38.086;2022-08-03T02:46:10;44.50;;;22.88;;
67363;SDS011;54250;45.572;38.086;2022-08-03T02:48:38;44.67;;;23.27;;
67363;SDS011;54250;45.572;38.086;2022-08-03T02:51:07;44.47;;;23.25;;
67363;SDS011;54250;45.572;38.086;2022-08-03T02:53:34;36.13;;;22.52;;
67363;SDS011;54250;45.572;38.086;2022-08-03T02:56:01;46.20;;;22.55;;
67363;SDS011;54250;45.572;38.086;2022-08-03T02:58:30;45.03;;;20.95;;
67363;SDS011;54250;45.572;38.086;2022-08-03T03:00:56;30.55;;;18.50;;
67363;SDS011;54250;45.572;38.086;2022-08-03T03:03:22;33.47;;;18.55;;
67363;SDS011;54250;45.572;38.086;2022-08-03T03:05:50;32.35;;;20.17;;
67363;SDS011;54250;45.572;38.086;2022-08-03T03:08:18;23.00;;;14.55;;
67363;SDS011;54250;45.572;38.086;2022-08-03T03:10:45;22.92;;;13.93;;
67363;SDS011;54250;45.572;38.086;2022-08-03T03:13:13;24.27;;;13.70;;
67363;SDS011;54250;45.572;38.086;2022-08-03T03:15:40;20.83;;;12.57;;
67363;SDS011;54250;45.572;38.086;2022-08-03T03:18:08;18.70;;;12.40;;
67363;SDS011;54250;45.572;38.086;2022-08-03T03:20:36;16.55;;;10.63;;
67363;SDS011;54250;45.572;38.086;2022-08-03T03:23:05;15.18;;;10.27;;
67363;SDS011;54250;45.572;38.086;2022-08-03T03:25:32;18.88;;;10.13;;
67363;SDS011;54250;45.572;38.086;2022-08-03T03:27:59;17.50;;;9.90;;
67363;SDS011;54250;45.572;38.086;2022-08-03T03:30:26;16.10;;;9.70;;
67363;SDS011;54250;45.572;38.086;2022-08-03T03:32:52;19.38;;;9.07;;
67363;SDS011;54250;45.572;38.086;2022-08-03T03:35:19;15.48;;;8.60;;
67363;SDS011;54250;45.572;38.086;2022-08-03T03:37:45;14.27;;;8.68;;
67363;SDS011;54250;45.572;38.086;2022-08-03T03:40:12;11.75;;;8.13;;
67363;SDS011;54250;45.572;38.086;2022-08-03T03:42:39;14.40;;;8.43;;
67363;SDS011;54250;45.572;38.086;2022-08-03T03:45:06;13.45;;;9.23;;
67363;SDS011;54250;45.572;38.086;2022-08-03T03:47:33;11.88;;;8.40;;
67363;SDS011;54250;45.572;38.086;2022-08-03T03:50:03;17.08;;;9.02;;
67363;SDS011;54250;45.572;38.086;2022-08-03T03:52:30;14.52;;;7.65;;
67363;SDS011;54250;45.572;38.086;2022-08-03T03:54:57;16.40;;;8.93;;
67363;SDS011;54250;45.572;38.086;2022-08-03T03:57:23;15.88;;;9.27;;
67363;SDS011;54250;45.572;38.086;2022-08-03T03:59:50;11.18;;;8.95;;
67363;SDS011;54250;45.572;38.086;2022-08-03T04:02:17;11.50;;;8.32;;
67363;SDS011;54250;45.572;38.086;2022-08-03T04:04:43;13.30;;;8.98;;
67363;SDS011;54250;45.572;38.086;2022-08-03T04:07:27;10.40;;;7.60;;
67363;SDS011;54250;45.572;38.086;2022-08-03T04:10:32;13.68;;;8.85;;
67363;SDS011;54250;45.572;38.086;2022-08-03T04:13:18;16.38;;;8.20;;
67363;SDS011;54250;45.572;38.086;2022-08-03T04:15:46;12.60;;;8.43;;
67363;SDS011;54250;45.572;38.086;2022-08-03T04:18:13;20.05;;;8.43;;
67363;SDS011;54250;45.572;38.086;2022-08-03T04:20:43;16.92;;;8.35;;
67363;SDS011;54250;45.572;38.086;2022-08-03T04:23:12;15.70;;;7.43;;
67363;SDS011;54250;45.572;38.086;2022-08-03T04:25:40;13.27;;;7.50;;
67363;SDS011;54250;45.572;38.086;2022-08-03T04:28:07;11.20;;;6.30;;
67363;SDS011;54250;45.572;38.086;2022-08-03T04:30:36;12.40;;;6.50;;
67363;SDS011;54250;45.572;38.086;2022-08-03T04:33:04;9.95;;;6.60;;
67363;SDS011;54250;45.572;38.086;2022-08-03T04:35:32;12.52;;;6.78;;
67363;SDS011;54250;45.572;38.086;2022-08-03T04:38:01;10.48;;;6.85;;
67363;SDS011;54250;45.572;38.086;2022-08-03T04:40:34;14.77;;;6.82;;
67363;SDS011;54250;45.572;38.086;2022-08-03T04:43:04;8.10;;;5.97;;
67363;SDS011;54250;45.572;38.086;2022-08-03T04:45:32;7.25;;;5.40;;
67363;SDS011;54250;45.572;38.086;2022-08-03T04:48:00;7.13;;;5.70;;
67363;SDS011;54250;45.572;38.086;2022-08-03T04:50:26;12.00;;;6.13;;
67363;SDS011;54250;45.572;38.086;2022-08-03T04:53:05;13.68;;;5.93;;
67363;SDS011;54250;45.572;38.086;2022-08-03T04:55:32;9.95;;;5.88;;
67363;SDS011;54250;45.572;38.086;2022-08-03T04:57:59;9.45;;;5.55;;
67363;SDS011;54250;45.572;38.086;2022-08-03T05:00:26;12.15;;;5.07;;
67363;SDS011;54250;45.572;38.086;2022-08-03T05:02:53;11.93;;;5.70;;
67363;SDS011;54250;45.572;38.086;2022-08-03T05:05:19;8.43;;;4.93;;
67363;SDS011;54250;45.572;38.086;2022-08-03T05:07:46;6.50;;;5.10;;
67363;SDS011;54250;45.572;38.086;2022-08-03T05:10:13;16.15;;;5.00;;
67363;SDS011;54250;45.572;38.086;2022-08-03T05:12:39;9.43;;;4.72;;
67363;SDS011;54250;45.572;38.086;2022-08-03T05:15:05;6.70;;;4.60;;
67363;SDS011;54250;45.572;38.086;2022-08-03T05:17:32;9.68;;;4.32;;
67363;SDS011;54250;45.572;38.086;2022-08-03T05:19:58;5.45;;;4.90;;
67363;SDS011;54250;45.572;38.086;2022-08-03T05:22:25;9.18;;;4.82;;
67363;SDS011;54250;45.572;38.086;2022-08-03T05:25:06;6.05;;;4.32;;
67363;SDS011;54250;45.572;38.086;2022-08-03T05:27:33;9.15;;;4.55;;
67363;SDS011;54250;45.572;38.086;2022-08-03T05:29:59;9.18;;;4.85;;
67363;SDS011;54250;45.572;38.086;2022-08-03T05:32:26;10.63;;;4.60;;
67363;SDS011;54250;45.572;38.086;2022-08-03T05:34:52;11.73;;;4.72;;
67363;SDS011;54250;45.572;38.086;2022-08-03T05:37:18;8.77;;;4.60;;
67363;SDS011;54250;45.572;38.086;2022-08-03T05:39:44;7.90;;;5.00;;
67363;SDS011;54250;45.572;38.086;2022-08-03T05:55:16;6.82;;;4.18;;
67363;SDS011;54250;45.572;38.086;2022-08-03T05:57:44;6.63;;;4.22;;
67363;SDS011;54250;45.572;38.086;2022-08-03T06:00:12;10.40;;;5.22;;
67363;SDS011;54250;45.572;38.086;2022-08-03T06:02:38;7.88;;;4.32;;
67363;SDS011;54250;45.572;38.086;2022-08-03T06:05:05;4.88;;;3.75;;
67363;SDS011;54250;45.572;38.086;2022-08-03T06:07:31;15.50;;;3.78;;
67363;SDS011;54250;45.572;38.086;2022-08-03T06:09:57;17.77;;;4.70;;
67363;SDS011;54250;45.572;38.086;2022-08-03T06:12:24;9.98;;;4.68;;
67363;SDS011;54250;45.572;38.086;2022-08-03T06:14:50;10.00;;;4.47;;
67363;SDS011;54250;45.572;38.086;2022-08-03T06:17:17;7.13;;;4.63;;
67363;SDS011;54250;45.572;38.086;2022-08-03T06:19:43;9.82;;;4.50;;
67363;SDS011;54250;45.572;38.086;2022-08-03T06:22:09;5.47;;;4.18;;
67363;SDS011;54250;45.572;38.086;2022-08-03T06:24:35;6.18;;;4.22;;
67363;SDS011;54250;45.572;38.086;2022-08-03T06:27:01;10.13;;;4.03;;
67363;SDS011;54250;45.572;38.086;2022-08-03T06:29:27;6.57;;;3.65;;
67363;SDS011;54250;45.572;38.086;2022-08-03T06:31:53;7.85;;;4.00;;
67363;SDS011;54250;45.572;38.086;2022-08-03T06:34:19;6.25;;;3.50;;
67363;SDS011;54250;45.572;38.086;2022-08-03T06:36:45;6.00;;;4.00;;
67363;SDS011;54250;45.572;38.086;2022-08-03T06:39:12;7.35;;;4.15;;
67363;SDS011;54250;45.572;38.086;2022-08-03T06:41:39;5.47;;;3.47;;
67363;SDS011;54250;45.572;38.086;2022-08-03T06:44:07;4.63;;;3.83;;
67363;SDS011;54250;45.572;38.086;2022-08-03T06:46:33;9.80;;;5.50;;
67363;SDS011;54250;45.572;38.086;2022-08-03T06:48:59;9.18;;;3.55;;
67363;SDS011;54250;45.572;38.086;2022-08-03T06:51:25;4.50;;;3.20;;
67363;SDS011;54250;45.572;38.086;2022-08-03T06:53:51;5.32;;;4.00;;
67363;SDS011;54250;45.572;38.086;2022-08-03T06:56:17;4.43;;;3.08;;
67363;SDS011;54250;45.572;38.086;2022-08-03T06:58:44;3.95;;;3.08;;
67363;SDS011;54250;45.572;38.086;2022-08-03T07:01:11;4.88;;;3.10;;
67363;SDS011;54250;45.572;38.086;2022-08-03T07:03:37;4.38;;;3.08;;
67363;SDS011;54250;45.572;38.086;2022-08-03T07:06:05;6.45;;;3.38;;
67363;SDS011;54250;45.572;38.086;2022-08-03T07:08:31;5.18;;;3.60;;
67363;SDS011;54250;45.572;38.086;2022-08-03T07:10:58;6.88;;;3.67;;
67363;SDS011;54250;45.572;38.086;2022-08-03T07:13:24;6.13;;;3.28;;
67363;SDS011;54250;45.572;38.086;2022-08-03T07:15:50;8.55;;;4.00;;
67363;SDS011;54250;45.572;38.086;2022-08-03T07:18:16;11.20;;;4.00;;
67363;SDS011;54250;45.572;38.086;2022-08-03T07:20:43;6.30;;;4.20;;
67363;SDS011;54250;45.572;38.086;2022-08-03T07:23:09;10.43;;;4.43;;
67363;SDS011;54250;45.572;38.086;2022-08-03T07:25:35;6.25;;;3.60;;
67363;SDS011;54250;45.572;38.086;2022-08-03T07:28:01;4.03;;;3.00;;
67363;SDS011;54250;45.572;38.086;2022-08-03T07:30:27;6.65;;;3.95;;
67363;SDS011;54250;45.572;38.086;2022-08-03T07:43:42;4.15;;;3.50;;
67363;SDS011;54250;45.572;38.086;2022-08-03T07:46:08;4.75;;;3.55;;
67363;SDS011;54250;45.572;38.086;2022-08-03T07:48:34;3.92;;;3.53;;
67363;SDS011;54250;45.572;38.086;2022-08-03T07:51:00;5.82;;;3.95;;
67363;SDS011;54250;45.572;38.086;2022-08-03T07:53:27;4.85;;;3.83;;
67363;SDS011;54250;45.572;38.086;2022-08-03T07:55:54;4.95;;;3.70;;
67363;SDS011;54250;45.572;38.086;2022-08-03T07:58:21;8.95;;;4.22;;
67363;SDS011;54250;45.572;38.086;2022-08-03T08:00:48;6.07;;;3.80;;
67363;SDS011;54250;45.572;38.086;2022-08-03T08:03:15;6.20;;;3.65;;
67363;SDS011;54250;45.572;38.086;2022-08-03T08:05:41;11.43;;;4.10;;
67363;SDS011;54250;45.572;38.086;2022-08-03T08:08:07;5.00;;;3.75;;
67363;SDS011;54250;45.572;38.086;2022-08-03T08:10:33;8.48;;;4.40;;
67363;SDS011;54250;45.572;38.086;2022-08-03T08:12:59;7.80;;;3.50;;
67363;SDS011;54250;45.572;38.086;2022-08-03T08:15:26;4.18;;;3.60;;
67363;SDS011;54250;45.572;38.086;2022-08-03T08:17:53;5.88;;;4.05;;
67363;SDS011;54250;45.572;38.086;2022-08-03T08:20:25;5.05;;;4.00;;
67363;SDS011;54250;45.572;38.086;2022-08-03T08:22:56;5.25;;;3.60;;
67363;SDS011;54250;45.572;38.086;2022-08-03T08:25:24;6.13;;;3.45;;
67363;SDS011;54250;45.572;38.086;2022-08-03T08:27:50;11.43;;;3.67;;
67363;SDS011;54250;45.572;38.086;2022-08-03T08:30:18;4.63;;;3.42;;
67363;SDS011;54250;45.572;38.086;2022-08-03T08:32:46;14.30;;;3.45;;
67363;SDS011;54250;45.572;38.086;2022-08-03T08:35:13;6.65;;;4.47;;
67363;SDS011;54250;45.572;38.086;2022-08-03T08:37:39;9.15;;;4.35;;
67363;SDS011;54250;45.572;38.086;2022-08-03T08:40:06;5.50;;;3.50;;
67363;SDS011;54250;45.572;38.086;2022-08-03T08:42:33;9.98;;;5.15;;
67363;SDS011;54250;45.572;38.086;2022-08-03T08:45:01;20.67;;;8.40;;
67363;SDS011;54250;45.572;38.086;2022-08-03T08:47:30;19.35;;;8.13;;
67363;SDS011;54250;45.572;38.086;2022-08-03T08:49:58;5.95;;;3.53;;
67363;SDS011;54250;45.572;38.086;2022-08-03T08:52:27;10.63;;;4.68;;
67363;SDS011;54250;45.572;38.086;2022-08-03T08:54:54;11.48;;;6.93;;
67363;SDS011;54250;45.572;38.086;2022-08-03T08:57:29;6.00;;;4.30;;
67363;SDS011;54250;45.572;38.086;2022-08-03T09:00:03;8.98;;;4.97;;
67363;SDS011;54250;45.572;38.086;2022-08-03T09:02:33;8.70;;;5.05;;
67363;SDS011;54250;45.572;38.086;2022-08-03T09:05:00;5.45;;;4.03;;
67363;SDS011;54250;45.572;38.086;2022-08-03T09:07:27;12.95;;;5.75;;
67363;SDS011;54250;45.572;38.086;2022-08-03T09:12:42;6.47;;;3.75;;
67363;SDS011;54250;45.572;38.086;2022-08-03T09:15:28;7.88;;;4.28;;
67363;SDS011;54250;45.572;38.086;2022-08-03T09:17:57;9.35;;;3.55;;
67363;SDS011;54250;45.572;38.086;2022-08-03T09:20:25;9.23;;;3.65;;
67363;SDS011;54250;45.572;38.086;2022-08-03T09:23:00;6.65;;;2.90;;
67363;SDS011;54250;45.572;38.086;2022-08-03T09:30:39;3.70;;;3.08;;
67363;SDS011;54250;45.572;38.086;2022-08-03T09:33:08;6.53;;;3.50;;
67363;SDS011;54250;45.572;38.086;2022-08-03T09:35:43;7.18;;;2.83;;
67363;SDS011;54250;45.572;38.086;2022-08-03T09:38:16;10.10;;;3.35;;
67363;SDS011;54250;45.572;38.086;2022-08-03T09:40:48;4.25;;;3.00;;
67363;SDS011;54250;45.572;38.086;2022-08-03T09:43:15;12.63;;;3.08;;
67363;SDS011;54250;45.572;38.086;2022-08-03T09:45:41;7.00;;;3.40;;
67363;SDS011;54250;45.572;38.086;2022-08-03T09:48:27;6.88;;;2.97;;
67363;SDS011;54250;45.572;38.086;2022-08-03T09:50:58;4.38;;;3.33;;
67363;SDS011;54250;45.572;38.086;2022-08-03T09:53:26;10.32;;;3.67;;
67363;SDS011;54250;45.572;38.086;2022-08-03T09:55:56;8.13;;;3.60;;
67363;SDS011;54250;45.572;38.086;2022-08-03T10:16:05;7.70;;;3.70;;
67363;SDS011;54250;45.572;38.086;2022-08-03T10:18:32;4.07;;;3.67;;
67363;SDS011;54250;45.572;38.086;2022-08-03T10:20:59;6.53;;;3.60;;
67363;SDS011;54250;45.572;38.086;2022-08-03T10:23:33;7.65;;;2.80;;
67363;SDS011;54250;45.572;38.086;2022-08-03T10:26:01;7.53;;;4.00;;
67363;SDS011;54250;45.572;38.086;2022-08-03T10:28:32;4.28;;;3.67;;
67363;SDS011;54250;45.572;38.086;2022-08-03T10:31:00;5.18;;;3.58;;
67363;SDS011;54250;45.572;38.086;2022-08-03T10:33:30;7.68;;;3.70;;
67363;SDS011;54250;45.572;38.086;2022-08-03T10:36:01;10.65;;;4.10;;
67363;SDS011;54250;45.572;38.086;2022-08-03T10:38:41;9.07;;;3.63;;
67363;SDS011;54250;45.572;38.086;2022-08-03T10:41:14;8.82;;;3.50;;
67363;SDS011;54250;45.572;38.086;2022-08-03T10:43:46;10.30;;;3.33;;
67363;SDS011;54250;45.572;38.086;2022-08-03T10:46:27;13.20;;;3.10;;
67363;SDS011;54250;45.572;38.086;2022-08-03T10:48:53;4.72;;;2.58;;
67363;SDS011;54250;45.572;38.086;2022-08-03T10:51:21;3.47;;;3.17;;
67363;SDS011;54250;45.572;38.086;2022-08-03T10:53:48;8.88;;;3.60;;
67363;SDS011;54250;45.572;38.086;2022-08-03T11:02:15;6.00;;;2.97;;
67363;SDS011;54250;45.572;38.086;2022-08-03T11:04:42;5.13;;;3.13;;
67363;SDS011;54250;45.572;38.086;2022-08-03T11:09:42;3.85;;;2.95;;
67363;SDS011;54250;45.572;38.086;2022-08-03T11:14:52;12.20;;;3.78;;
67363;SDS011;54250;45.572;38.086;2022-08-03T11:17:19;26.35;;;4.55;;
67363;SDS011;54250;45.572;38.086;2022-08-03T11:19:47;49.20;;;6.95;;
67363;SDS011;54250;45.572;38.086;2022-08-03T11:22:15;35.28;;;5.95;;
67363;SDS011;54250;45.572;38.086;2022-08-03T11:29:59;20.13;;;5.65;;
67363;SDS011;54250;45.572;38.086;2022-08-03T11:35:12;9.90;;;4.05;;
67363;SDS011;54250;45.572;38.086;2022-08-03T11:40:55;3.55;;;2.67;;
67363;SDS011;54250;45.572;38.086;2022-08-03T11:46:04;4.32;;;3.47;;
67363;SDS011;54250;45.572;38.086;2022-08-03T11:48:42;4.10;;;2.80;;
67363;SDS011;54250;45.572;38.086;2022-08-03T11:51:23;7.82;;;4.15;;
67363;SDS011;54250;45.572;38.086;2022-08-03T11:56:24;9.38;;;3.42;;
67363;SDS011;54250;45.572;38.086;2022-08-03T11:58:51;5.55;;;3.17;;
67363;SDS011;54250;45.572;38.086;2022-08-03T12:01:20;8.50;;;3.20;;
67363;SDS011;54250;45.572;38.086;2022-08-03T12:03:47;4.07;;;3.00;;
67363;SDS011;54250;45.572;38.086;2022-08-03T12:06:14;7.07;;;3.60;;
67363;SDS011;54250;45.572;38.086;2022-08-03T12:08:42;3.58;;;3.10;;
67363;SDS011;54250;45.572;38.086;2022-08-03T12:11:10;6.88;;;3.38;;
67363;SDS011;54250;45.572;38.086;2022-08-03T12:13:38;4.03;;;3.22;;
67363;SDS011;54250;45.572;38.086;2022-08-03T12:18:54;5.55;;;3.35;;
67363;SDS011;54250;45.572;38.086;2022-08-03T12:21:21;4.30;;;3.00;;
67363;SDS011;54250;45.572;38.086;2022-08-03T12:23:49;7.78;;;3.53;;
67363;SDS011;54250;45.572;38.086;2022-08-03T12:26:15;4.07;;;3.22;;
67363;SDS011;54250;45.572;38.086;2022-08-03T12:28:47;3.65;;;2.80;;
67363;SDS011;54250;45.572;38.086;2022-08-03T12:31:14;10.43;;;5.93;;
67363;SDS011;54250;45.572;38.086;2022-08-03T12:36:31;4.38;;;3.10;;
67363;SDS011;54250;45.572;38.086;2022-08-03T12:39:03;4.03;;;3.15;;
67363;SDS011;54250;45.572;38.086;2022-08-03T12:41:35;6.10;;;3.30;;
67363;SDS011;54250;45.572;38.086;2022-08-03T12:44:04;5.75;;;3.30;;
67363;SDS011;54250;45.572;38.086;2022-08-03T12:46:33;8.63;;;2.85;;
67363;SDS011;54250;45.572;38.086;2022-08-03T12:49:07;5.78;;;3.15;;
67363;SDS011;54250;45.572;38.086;2022-08-03T12:54:08;7.10;;;3.55;;
67363;SDS011;54250;45.572;38.086;2022-08-03T12:57:01;6.32;;;3.83;;
67363;SDS011;54250;45.572;38.086;2022-08-03T12:59:30;8.68;;;3.65;;
67363;SDS011;54250;45.572;38.086;2022-08-03T13:02:02;8.27;;;4.07;;
67363;SDS011;54250;45.572;38.086;2022-08-03T13:04:34;5.82;;;3.33;;
67363;SDS011;54250;45.572;38.086;2022-08-03T13:07:04;4.07;;;3.35;;
67363;SDS011;54250;45.572;38.086;2022-08-03T13:09:44;5.45;;;3.50;;
67363;SDS011;54250;45.572;38.086;2022-08-03T13:14:42;5.63;;;3.60;;
67363;SDS011;54250;45.572;38.086;2022-08-03T13:17:10;6.57;;;3.75;;
67363;SDS011;54250;45.572;38.086;2022-08-03T13:19:37;6.88;;;4.00;;
67363;SDS011;54250;45.572;38.086;2022-08-03T13:22:11;9.48;;;3.90;;
67363;SDS011;54250;45.572;38.086;2022-08-03T13:24:41;6.30;;;3.47;;
67363;SDS011;54250;45.572;38.086;2022-08-03T13:27:08;8.88;;;3.90;;
67363;SDS011;54250;45.572;38.086;2022-08-03T13:29:35;8.85;;;3.78;;
67363;SDS011;54250;45.572;38.086;2022-08-03T13:32:02;7.15;;;3.13;;
67363;SDS011;54250;45.572;38.086;2022-08-03T13:34:29;13.38;;;3.22;;
67363;SDS011;54250;45.572;38.086;2022-08-03T13:36:55;4.53;;;3.05;;
67363;SDS011;54250;45.572;38.086;2022-08-03T13:39:21;8.70;;;3.28;;
67363;SDS011;54250;45.572;38.086;2022-08-03T13:41:47;5.07;;;3.08;;
67363;SDS011;54250;45.572;38.086;2022-08-03T13:44:14;4.70;;;3.30;;
67363;SDS011;54250;45.572;38.086;2022-08-03T13:46:40;6.55;;;3.30;;
67363;SDS011;54250;45.572;38.086;2022-08-03T13:49:07;4.90;;;3.08;;
67363;SDS011;54250;45.572;38.086;2022-08-03T13:51:33;22.58;;;3.33;;
67363;SDS011;54250;45.572;38.086;2022-08-03T13:54:00;5.93;;;3.40;;
67363;SDS011;54250;45.572;38.086;2022-08-03T13:56:26;3.47;;;3.15;;
67363;SDS011;54250;45.572;38.086;2022-08-03T14:11:26;5.18;;;4.07;;
67363;SDS011;54250;45.572;38.086;2022-08-03T14:13:53;7.28;;;3.67;;
67363;SDS011;54250;45.572;38.086;2022-08-03T14:16:19;9.18;;;4.10;;
67363;SDS011;54250;45.572;38.086;2022-08-03T14:18:45;5.55;;;3.72;;
67363;SDS011;54250;45.572;38.086;2022-08-03T14:24:14;6.30;;;3.30;;
67363;SDS011;54250;45.572;38.086;2022-08-03T14:26:40;5.32;;;3.20;;
67363;SDS011;54250;45.572;38.086;2022-08-03T14:29:07;5.82;;;3.00;;
67363;SDS011;54250;45.572;38.086;2022-08-03T14:31:33;9.77;;;4.18;;
67363;SDS011;54250;45.572;38.086;2022-08-03T14:33:59;3.50;;;3.03;;
67363;SDS011;54250;45.572;38.086;2022-08-03T14:36:25;4.35;;;3.00;;
67363;SDS011;54250;45.572;38.086;2022-08-03T14:38:51;4.82;;;3.40;;
67363;SDS011;54250;45.572;38.086;2022-08-03T14:41:17;4.25;;;3.10;;
67363;SDS011;54250;45.572;38.086;2022-08-03T14:43:43;3.85;;;2.97;;
67363;SDS011;54250;45.572;38.086;2022-08-03T14:46:09;4.05;;;2.80;;
67363;SDS011;54250;45.572;38.086;2022-08-03T14:48:35;3.22;;;2.80;;
67363;SDS011;54250;45.572;38.086;2022-08-03T14:51:02;4.47;;;2.88;;
67363;SDS011;54250;45.572;38.086;2022-08-03T14:53:29;6.70;;;2.97;;
67363;SDS011;54250;45.572;38.086;2022-08-03T14:56:13;7.75;;;3.28;;
67363;SDS011;54250;45.572;38.086;2022-08-03T14:58:40;3.63;;;2.90;;
67363;SDS011;54250;45.572;38.086;2022-08-03T15:01:06;4.40;;;3.10;;
67363;SDS011;54250;45.572;38.086;2022-08-03T15:03:32;3.28;;;2.97;;
67363;SDS011;54250;45.572;38.086;2022-08-03T15:05:58;4.40;;;2.90;;
67363;SDS011;54250;45.572;38.086;2022-08-03T15:08:25;10.43;;;3.22;;
67363;SDS011;54250;45.572;38.086;2022-08-03T15:11:03;7.07;;;2.80;;
67363;SDS011;54250;45.572;38.086;2022-08-03T15:13:29;4.40;;;3.10;;
67363;SDS011;54250;45.572;38.086;2022-08-03T15:15:55;6.78;;;3.17;;
67363;SDS011;54250;45.572;38.086;2022-08-03T15:18:22;5.32;;;3.20;;
67363;SDS011;54250;45.572;38.086;2022-08-03T15:20:48;6.07;;;3.72;;
67363;SDS011;54250;45.572;38.086;2022-08-03T15:23:15;6.38;;;3.97;;
67363;SDS011;54250;45.572;38.086;2022-08-03T15:25:43;4.93;;;3.55;;
67363;SDS011;54250;45.572;38.086;2022-08-03T15:28:09;7.40;;;3.83;;
67363;SDS011;54250;45.572;38.086;2022-08-03T15:30:35;5.13;;;4.03;;
67363;SDS011;54250;45.572;38.086;2022-08-03T15:33:03;6.40;;;4.05;;
67363;SDS011;54250;45.572;38.086;2022-08-03T15:35:29;13.00;;;5.30;;
67363;SDS011;54250;45.572;38.086;2022-08-03T15:37:56;13.65;;;5.22;;
67363;SDS011;54250;45.572;38.086;2022-08-03T15:40:22;13.63;;;8.27;;
67363;SDS011;54250;45.572;38.086;2022-08-03T15:42:48;20.83;;;6.95;;
67363;SDS011;54250;45.572;38.086;2022-08-03T15:45:14;11.45;;;6.57;;
67363;SDS011;54250;45.572;38.086;2022-08-03T15:47:40;15.43;;;8.57;;
67363;SDS011;54250;45.572;38.086;2022-08-03T15:50:06;8.88;;;5.45;;
67363;SDS011;54250;45.572;38.086;2022-08-03T15:52:33;10.32;;;5.95;;
67363;SDS011;54250;45.572;38.086;2022-08-03T15:54:59;9.25;;;5.20;;
67363;SDS011;54250;45.572;38.086;2022-08-03T15:57:25;9.40;;;4.82;;
67363;SDS011;54250;45.572;38.086;2022-08-03T15:59:52;10.93;;;5.40;;
67363;SDS011;54250;45.572;38.086;2022-08-03T16:02:18;9.00;;;5.18;;
67363;SDS011;54250;45.572;38.086;2022-08-03T16:04:44;10.23;;;6.20;;
67363;SDS011;54250;45.572;38.086;2022-08-03T16:07:10;9.20;;;5.30;;
67363;SDS011;54250;45.572;38.086;2022-08-03T16:09:38;7.28;;;5.57;;
67363;SDS011;54250;45.572;38.086;2022-08-03T16:12:04;6.10;;;5.40;;
67363;SDS011;54250;45.572;38.086;2022-08-03T16:14:30;8.02;;;6.00;;
67363;SDS011;54250;45.572;38.086;2022-08-03T16:16:56;8.73;;;6.00;;
67363;SDS011;54250;45.572;38.086;2022-08-03T16:19:23;11.95;;;5.93;;
67363;SDS011;54250;45.572;38.086;2022-08-03T16:21:49;9.23;;;6.05;;
67363;SDS011;54250;45.572;38.086;2022-08-03T16:24:15;7.13;;;5.95;;
67363;SDS011;54250;45.572;38.086;2022-08-03T16:26:41;15.55;;;6.53;;
67363;SDS011;54250;45.572;38.086;2022-08-03T16:29:07;11.43;;;6.47;;